Time,TemperatureF,DewpointF,PressureIn,WindDirection,WindDirectionDegrees,WindSpeedMPH,WindSpeedGustMPH,Humidity,HourlyPrecipIn,Conditions,Clouds,dailyrainin,SoftwareType,DateUTC
2013-04-13 00:03:00,39.0,37.0,-100.00,South,180,1.0,4.0,93,-99.99,,,-99.99,,2013-04-13 07:03:00,
2013-04-13 00:13:00,39.0,37.0,-100.00,South,180,1.0,4.0,93,-99.99,,,-99.99,,2013-04-13 07:13:00,
2013-04-13 00:22:00,39.0,37.0,-100.00,South,180,1.0,4.0,93,-99.99,,,-99.99,,2013-04-13 07:22:00,
2013-04-13 00:33:00,39.0,37.0,-100.00,South,180,1.0,4.0,93,-99.99,,,-99.99,,2013-04-13 07:33:00,
2013-04-13 00:44:00,39.0,37.0,-100.00,South,180,1.0,4.0,93,-99.99,,,-99.99,,2013-04-13 07:44:00,
2013-04-13 00:55:00,39.0,37.0,-100.00,South,180,2.0,4.0,93,-99.99,,,-99.99,,2013-04-13 07:55:00,
2013-04-13 01:04:00,39.0,37.0,-100.00,South,180,3.0,4.0,93,-99.99,,,-99.99,,2013-04-13 08:04:00,
2013-04-13 01:13:00,39.0,37.0,-100.00,South,180,3.0,4.0,93,-99.99,,,-99.99,,2013-04-13 08:13:00,
2013-04-13 01:24:00,38.0,36.0,-100.00,South,180,2.0,4.0,92,-99.99,,,-99.99,,2013-04-13 08:24:00,
2013-04-13 01:33:00,38.0,36.0,-100.00,South,180,2.0,6.0,92,-99.99,,,-99.99,,2013-04-13 08:33:00,
2013-04-13 01:44:00,38.0,36.0,-100.00,South,180,2.0,6.0,92,-99.99,,,-99.99,,2013-04-13 08:44:00,
2013-04-13 01:54:00,38.0,36.0,-100.00,South,180,1.0,4.0,92,-99.99,,,-99.99,,2013-04-13 08:54:00,
2013-04-13 02:04:00,38.0,36.0,-100.00,South,180,2.0,5.0,92,-99.99,,,-99.99,,2013-04-13 09:04:00,
2013-04-13 02:13:00,38.0,36.0,-100.00,South,180,2.0,5.0,92,-99.99,,,-99.99,,2013-04-13 09:13:00,
2013-04-13 02:23:00,37.0,35.0,-100.00,SW,225,3.0,11.0,92,-99.99,,,-99.99,,2013-04-13 09:23:00,
2013-04-13 02:34:00,37.0,35.0,-100.00,South,180,1.0,4.0,92,-99.99,,,-99.99,,2013-04-13 09:34:00,
2013-04-13 02:46:00,37.0,35.0,-100.00,South,180,1.0,4.0,92,-99.99,,,-99.99,,2013-04-13 09:46:00,
2013-04-13 02:54:00,37.0,35.0,-100.00,South,180,1.0,3.0,93,-99.99,,,-99.99,,2013-04-13 09:54:00,
2013-04-13 03:04:00,37.0,36.0,-100.00,South,180,1.0,3.0,93,-99.99,,,-99.99,,2013-04-13 10:04:00,
2013-04-13 03:14:00,37.0,36.0,-100.00,South,180,1.0,3.0,93,-99.99,,,-99.99,,2013-04-13 10:14:00,
2013-04-13 03:23:00,37.0,35.0,-100.00,South,180,1.0,3.0,93,-99.99,,,-99.99,,2013-04-13 10:23:00,
2013-04-13 03:35:00,37.0,35.0,-100.00,South,180,1.0,2.0,93,-99.99,,,-99.99,,2013-04-13 10:35:00,
2013-04-13 03:44:00,37.0,35.0,-100.00,South,180,1.0,2.0,93,-99.99,,,-99.99,,2013-04-13 10:44:00,
2013-04-13 03:54:00,37.0,35.0,-100.00,South,180,1.0,3.0,93,-99.99,,,-99.99,,2013-04-13 10:54:00,
2013-04-13 04:04:00,37.0,35.0,-100.00,South,180,1.0,3.0,93,-99.99,,,-99.99,,2013-04-13 11:04:00,
2013-04-13 04:12:00,37.0,35.0,-100.00,South,180,1.0,3.0,93,-99.99,,,-99.99,,2013-04-13 11:12:00,
2013-04-13 04:23:00,37.0,35.0,-100.00,South,180,1.0,3.0,93,-99.99,,,-99.99,,2013-04-13 11:23:00,
2013-04-13 04:33:00,36.0,34.0,-100.00,South,180,1.0,3.0,93,-99.99,,,-99.99,,2013-04-13 11:33:00,
2013-04-13 04:44:00,36.0,34.0,-100.00,South,180,1.0,3.0,93,-99.99,,,-99.99,,2013-04-13 11:44:00,
2013-04-13 04:53:00,36.0,34.0,-100.00,South,180,1.0,3.0,93,-99.99,,,-99.99,,2013-04-13 11:53:00,
2013-04-13 05:05:00,36.0,34.0,-100.00,South,180,1.0,1.0,93,-99.99,,,-99.99,,2013-04-13 12:05:00,
2013-04-13 05:14:00,36.0,34.0,-100.00,South,180,1.0,1.0,93,-99.99,,,-99.99,,2013-04-13 12:14:00,
2013-04-13 05:23:00,36.0,34.0,-100.00,South,180,0.0,3.0,93,-99.99,,,-99.99,,2013-04-13 12:23:00,
2013-04-13 05:34:00,36.0,34.0,-100.00,South,180,1.0,5.0,93,-99.99,,,-99.99,,2013-04-13 12:34:00,
2013-04-13 05:45:00,36.0,34.0,-100.00,South,180,1.0,5.0,93,-99.99,,,-99.99,,2013-04-13 12:45:00,
2013-04-13 05:55:00,36.0,34.0,-100.00,South,180,1.0,2.0,93,-99.99,,,-99.99,,2013-04-13 12:55:00,
2013-04-13 06:04:00,35.0,34.0,-100.00,South,180,0.0,2.0,93,-99.99,,,-99.99,,2013-04-13 13:04:00,
2013-04-13 06:14:00,35.0,34.0,-100.00,South,180,0.0,2.0,93,-99.99,,,-99.99,,2013-04-13 13:14:00,
2013-04-13 06:23:00,35.0,33.0,-100.00,South,180,0.0,3.0,93,-99.99,,,-99.99,,2013-04-13 13:23:00,
2013-04-13 06:33:00,34.0,33.0,-100.00,South,180,1.0,1.0,93,-99.99,,,-99.99,,2013-04-13 13:33:00,
2013-04-13 06:45:00,34.0,33.0,-100.00,South,180,1.0,1.0,93,-99.99,,,-99.99,,2013-04-13 13:45:00,
2013-04-13 06:55:00,35.0,34.0,-100.00,South,180,1.0,3.0,93,-99.99,,,-99.99,,2013-04-13 13:55:00,
2013-04-13 07:03:00,36.0,34.0,-100.00,South,180,1.0,3.0,93,-99.99,,,-99.99,,2013-04-13 14:03:00,
2013-04-13 07:13:00,36.0,34.0,-100.00,South,180,1.0,3.0,93,-99.99,,,-99.99,,2013-04-13 14:13:00,
2013-04-13 07:23:00,36.0,34.0,-100.00,South,180,0.0,5.0,93,-99.99,,,-99.99,,2013-04-13 14:23:00,
2013-04-13 07:34:00,36.0,34.0,-100.00,South,180,0.0,2.0,93,-99.99,,,-99.99,,2013-04-13 14:34:00,
2013-04-13 07:44:00,36.0,34.0,-100.00,South,180,0.0,2.0,93,-99.99,,,-99.99,,2013-04-13 14:44:00,
2013-04-13 07:58:00,36.0,34.0,-100.00,South,180,1.0,3.0,93,-99.99,,,-99.99,,2013-04-13 14:58:00,
2013-04-13 08:03:00,35.0,34.0,-100.00,SW,225,1.0,2.0,93,-99.99,,,-99.99,,2013-04-13 15:03:00,
2013-04-13 08:13:00,35.0,34.0,-100.00,SW,225,1.0,2.0,93,-99.99,,,-99.99,,2013-04-13 15:13:00,
2013-04-13 08:26:00,35.0,33.0,-100.00,North,-999,0.0,0.0,93,-99.99,,,-99.99,,2013-04-13 15:26:00,
2013-04-13 08:34:00,35.0,33.0,-100.00,South,180,0.0,1.0,93,-99.99,,,-99.99,,2013-04-13 15:34:00,
2013-04-13 08:43:00,35.0,33.0,-100.00,South,180,0.0,1.0,93,-99.99,,,-99.99,,2013-04-13 15:43:00,
2013-04-13 08:57:00,36.0,34.0,-100.00,South,180,0.0,2.0,93,-99.99,,,-99.99,,2013-04-13 15:57:00,
2013-04-13 09:04:00,36.0,34.0,-100.00,North,-999,0.0,0.0,93,-99.99,,,-99.99,,2013-04-13 16:04:00,
2013-04-13 09:13:00,36.0,34.0,-100.00,North,-999,0.0,0.0,93,-99.99,,,-99.99,,2013-04-13 16:13:00,
2013-04-13 09:34:00,38.0,36.0,-100.00,South,180,0.0,4.0,93,-99.99,,,-99.99,,2013-04-13 16:34:00,
2013-04-13 09:44:00,38.0,36.0,-100.00,South,180,0.0,4.0,93,-99.99,,,-99.99,,2013-04-13 16:44:00,
2013-04-13 09:55:00,39.0,37.0,-100.00,South,180,1.0,4.0,93,-99.99,,,-99.99,,2013-04-13 16:55:00,
2013-04-13 10:04:00,39.0,37.0,-100.00,South,180,1.0,3.0,92,-99.99,,,-99.99,,2013-04-13 17:04:00,
2013-04-13 10:17:00,39.0,37.0,-100.00,South,180,1.0,3.0,92,-99.99,,,-99.99,,2013-04-13 17:17:00,
2013-04-13 10:24:00,39.0,36.0,-100.00,South,180,1.0,4.0,89,-99.99,,,-99.99,,2013-04-13 17:24:00,
2013-04-13 10:35:00,39.0,35.0,-100.00,South,180,2.0,4.0,84,-99.99,,,-99.99,,2013-04-13 17:35:00,
2013-04-13 10:43:00,39.0,35.0,-100.00,South,180,2.0,4.0,84,-99.99,,,-99.99,,2013-04-13 17:43:00,
2013-04-13 11:02:00,39.0,34.0,-100.00,SW,225,3.0,6.0,81,-99.99,,,-99.99,,2013-04-13 18:02:00,
2013-04-13 11:14:00,39.0,35.0,-100.00,South,180,2.0,7.0,87,-99.99,,,-99.99,,2013-04-13 18:14:00,
2013-04-13 11:23:00,39.0,36.0,-100.00,South,180,2.0,6.0,89,-99.99,,,-99.99,,2013-04-13 18:23:00,
2013-04-13 11:32:00,41.0,38.0,-100.00,SE,135,1.0,6.0,91,-99.99,,,-99.99,,2013-04-13 18:32:00,
2013-04-13 11:42:00,41.0,38.0,-100.00,SE,135,1.0,6.0,91,-99.99,,,-99.99,,2013-04-13 18:42:00,
2013-04-13 11:53:00,42.0,39.0,-100.00,South,180,1.0,8.0,91,-99.99,,,-99.99,,2013-04-13 18:53:00,
2013-04-13 12:02:00,40.0,37.0,-100.00,South,180,1.0,6.0,89,-99.99,,,-99.99,,2013-04-13 19:02:00,
2013-04-13 12:12:00,40.0,37.0,-100.00,South,180,1.0,6.0,89,-99.99,,,-99.99,,2013-04-13 19:12:00,
2013-04-13 12:22:00,39.0,37.0,-100.00,South,180,1.0,3.0,90,-99.99,,,-99.99,,2013-04-13 19:22:00,
2013-04-13 12:32:00,40.0,37.0,-100.00,South,180,1.0,3.0,91,-99.99,,,-99.99,,2013-04-13 19:32:00,
2013-04-13 12:42:00,40.0,37.0,-100.00,South,180,1.0,3.0,91,-99.99,,,-99.99,,2013-04-13 19:42:00,
2013-04-13 12:53:00,42.0,40.0,-100.00,South,180,1.0,5.0,92,-99.99,,,-99.99,,2013-04-13 19:53:00,
2013-04-13 13:02:00,43.0,41.0,-100.00,SW,225,1.0,5.0,91,-99.99,,,-99.99,,2013-04-13 20:02:00,
2013-04-13 13:12:00,43.0,41.0,-100.00,SW,225,1.0,5.0,91,-99.99,,,-99.99,,2013-04-13 20:12:00,
2013-04-13 13:22:00,44.0,41.0,-100.00,South,180,2.0,7.0,90,-99.99,,,-99.99,,2013-04-13 20:22:00,
2013-04-13 13:32:00,44.0,40.0,-100.00,South,180,1.0,7.0,85,-99.99,,,-99.99,,2013-04-13 20:32:00,
2013-04-13 13:42:00,44.0,40.0,-100.00,South,180,1.0,7.0,85,-99.99,,,-99.99,,2013-04-13 20:42:00,
2013-04-13 13:52:00,44.0,39.0,-100.00,South,180,1.0,9.0,82,-99.99,,,-99.99,,2013-04-13 20:52:00,
2013-04-13 14:02:00,43.0,39.0,-100.00,South,180,3.0,7.0,84,-99.99,,,-99.99,,2013-04-13 21:02:00,
2013-04-13 14:12:00,43.0,39.0,-100.00,South,180,3.0,7.0,84,-99.99,,,-99.99,,2013-04-13 21:12:00,
2013-04-13 14:22:00,45.0,40.0,-100.00,South,180,2.0,7.0,82,-99.99,,,-99.99,,2013-04-13 21:22:00,
2013-04-13 14:32:00,45.0,39.0,-100.00,South,180,1.0,4.0,78,-99.99,,,-99.99,,2013-04-13 21:32:00,
2013-04-13 14:43:00,45.0,39.0,-100.00,South,180,1.0,4.0,78,-99.99,,,-99.99,,2013-04-13 21:43:00,
2013-04-13 14:53:00,45.0,39.0,-100.00,South,180,2.0,9.0,82,-99.99,,,-99.99,,2013-04-13 21:53:00,
2013-04-13 15:02:00,42.0,38.0,-100.00,SW,225,3.0,8.0,85,-99.99,,,-99.99,,2013-04-13 22:02:00,
2013-04-13 15:12:00,42.0,38.0,-100.00,SW,225,3.0,8.0,85,-99.99,,,-99.99,,2013-04-13 22:12:00,
2013-04-13 15:22:00,43.0,39.0,-100.00,South,180,3.0,7.0,87,-99.99,,,-99.99,,2013-04-13 22:22:00,
2013-04-13 15:32:00,44.0,40.0,-100.00,South,180,3.0,6.0,86,-99.99,,,-99.99,,2013-04-13 22:32:00,
2013-04-13 15:42:00,44.0,40.0,-100.00,South,180,3.0,6.0,86,-99.99,,,-99.99,,2013-04-13 22:42:00,
2013-04-13 15:52:00,44.0,41.0,-100.00,South,180,3.0,5.0,88,-99.99,,,-99.99,,2013-04-13 22:52:00,
2013-04-13 16:02:00,45.0,40.0,-100.00,South,180,3.0,7.0,84,-99.99,,,-99.99,,2013-04-13 23:02:00,
2013-04-13 16:12:00,45.0,40.0,-100.00,South,180,3.0,7.0,84,-99.99,,,-99.99,,2013-04-13 23:12:00,
2013-04-13 16:22:00,41.0,37.0,-100.00,South,180,3.0,6.0,85,-99.99,,,-99.99,,2013-04-13 23:22:00,
2013-04-13 16:32:00,41.0,39.0,-100.00,South,180,1.0,4.0,90,-99.99,,,-99.99,,2013-04-13 23:32:00,
2013-04-13 16:41:00,41.0,39.0,-100.00,South,180,1.0,4.0,90,-99.99,,,-99.99,,2013-04-13 23:41:00,
2013-04-13 16:53:00,43.0,41.0,-100.00,SW,225,2.0,11.0,91,-99.99,,,-99.99,,2013-04-13 23:53:00,
2013-04-13 17:02:00,44.0,41.0,-100.00,South,180,3.0,8.0,91,-99.99,,,-99.99,,2013-04-14 00:02:00,
2013-04-13 17:12:00,44.0,41.0,-100.00,South,180,3.0,8.0,91,-99.99,,,-99.99,,2013-04-14 00:12:00,
2013-04-13 17:22:00,43.0,41.0,-100.00,South,180,1.0,6.0,90,-99.99,,,-99.99,,2013-04-14 00:22:00,
2013-04-13 17:32:00,43.0,41.0,-100.00,South,180,1.0,6.0,90,-99.99,,,-99.99,,2013-04-14 00:32:00,
2013-04-13 17:42:00,43.0,41.0,-100.00,South,180,1.0,6.0,90,-99.99,,,-99.99,,2013-04-14 00:42:00,
2013-04-13 17:52:00,43.0,40.0,-100.00,South,180,2.0,4.0,89,-99.99,,,-99.99,,2013-04-14 00:52:00,
2013-04-13 18:02:00,43.0,40.0,-100.00,South,180,2.0,6.0,89,-99.99,,,-99.99,,2013-04-14 01:02:00,
2013-04-13 18:12:00,43.0,40.0,-100.00,South,180,2.0,6.0,89,-99.99,,,-99.99,,2013-04-14 01:12:00,
2013-04-13 18:22:00,42.0,39.0,-100.00,South,180,2.0,4.0,87,-99.99,,,-99.99,,2013-04-14 01:22:00,
2013-04-13 18:32:00,42.0,39.0,-100.00,South,180,2.0,4.0,87,-99.99,,,-99.99,,2013-04-14 01:32:00,
2013-04-13 18:42:00,42.0,39.0,-100.00,South,180,2.0,4.0,87,-99.99,,,-99.99,,2013-04-14 01:42:00,
2013-04-13 18:53:00,43.0,38.0,-100.00,South,180,2.0,5.0,83,-99.99,,,-99.99,,2013-04-14 01:53:00,
2013-04-13 19:02:00,43.0,38.0,-100.00,SE,135,1.0,6.0,82,-99.99,,,-99.99,,2013-04-14 02:02:00,
2013-04-13 19:12:00,43.0,38.0,-100.00,SE,135,1.0,6.0,82,-99.99,,,-99.99,,2013-04-14 02:12:00,
2013-04-13 19:22:00,42.0,39.0,-100.00,South,180,2.0,4.0,87,-99.99,,,-99.99,,2013-04-14 02:22:00,
2013-04-13 19:32:00,42.0,39.0,-100.00,South,180,1.0,4.0,89,-99.99,,,-99.99,,2013-04-14 02:32:00,
2013-04-13 19:42:00,42.0,39.0,-100.00,South,180,1.0,4.0,89,-99.99,,,-99.99,,2013-04-14 02:42:00,
2013-04-13 19:53:00,41.0,38.0,-100.00,South,180,2.0,5.0,89,-99.99,,,-99.99,,2013-04-14 02:53:00,
2013-04-13 20:02:00,41.0,38.0,-100.00,South,180,1.0,4.0,89,-99.99,,,-99.99,,2013-04-14 03:02:00,
2013-04-13 20:12:00,41.0,38.0,-100.00,South,180,1.0,4.0,89,-99.99,,,-99.99,,2013-04-14 03:12:00,
2013-04-13 20:22:00,41.0,38.0,-100.00,South,180,1.0,4.0,89,-99.99,,,-99.99,,2013-04-14 03:22:00,
2013-04-13 20:33:00,41.0,38.0,-100.00,South,180,1.0,3.0,89,-99.99,,,-99.99,,2013-04-14 03:33:00,
2013-04-13 20:42:00,41.0,38.0,-100.00,South,180,1.0,3.0,89,-99.99,,,-99.99,,2013-04-14 03:42:00,
2013-04-13 20:53:00,41.0,38.0,-100.00,South,180,1.0,3.0,89,-99.99,,,-99.99,,2013-04-14 03:53:00,
2013-04-13 21:02:00,41.0,38.0,-100.00,South,180,1.0,4.0,90,-99.99,,,-99.99,,2013-04-14 04:02:00,
2013-04-13 21:12:00,41.0,38.0,-100.00,South,180,1.0,4.0,90,-99.99,,,-99.99,,2013-04-14 04:12:00,
2013-04-13 21:22:00,41.0,38.0,-100.00,South,180,1.0,2.0,90,-99.99,,,-99.99,,2013-04-14 04:22:00,
2013-04-13 21:32:00,40.0,38.0,-100.00,South,180,1.0,3.0,91,-99.99,,,-99.99,,2013-04-14 04:32:00,
2013-04-13 21:42:00,40.0,38.0,-100.00,South,180,1.0,3.0,91,-99.99,,,-99.99,,2013-04-14 04:42:00,
2013-04-13 21:52:00,41.0,38.0,-100.00,South,180,1.0,4.0,91,-99.99,,,-99.99,,2013-04-14 04:52:00,
2013-04-13 22:02:00,41.0,38.0,-100.00,South,180,1.0,4.0,92,-99.99,,,-99.99,,2013-04-14 05:02:00,
2013-04-13 22:12:00,41.0,38.0,-100.00,South,180,1.0,4.0,92,-99.99,,,-99.99,,2013-04-14 05:12:00,
2013-04-13 22:22:00,40.0,38.0,-100.00,South,180,1.0,3.0,92,-99.99,,,-99.99,,2013-04-14 05:22:00,
2013-04-13 22:32:00,40.0,38.0,-100.00,South,180,1.0,2.0,92,-99.99,,,-99.99,,2013-04-14 05:32:00,
2013-04-13 22:42:00,40.0,38.0,-100.00,South,180,1.0,2.0,92,-99.99,,,-99.99,,2013-04-14 05:42:00,
2013-04-13 22:52:00,40.0,38.0,-100.00,South,180,1.0,3.0,92,-99.99,,,-99.99,,2013-04-14 05:52:00,
2013-04-13 23:02:00,40.0,38.0,-100.00,South,180,1.0,2.0,93,-99.99,,,-99.99,,2013-04-14 06:02:00,
2013-04-13 23:12:00,40.0,38.0,-100.00,South,180,1.0,2.0,93,-99.99,,,-99.99,,2013-04-14 06:12:00,
2013-04-13 23:22:00,40.0,38.0,-100.00,South,180,1.0,2.0,93,-99.99,,,-99.99,,2013-04-14 06:22:00,
2013-04-13 23:32:00,40.0,38.0,-100.00,South,180,1.0,3.0,93,-99.99,,,-99.99,,2013-04-14 06:32:00,
2013-04-13 23:42:00,40.0,38.0,-100.00,South,180,1.0,3.0,93,-99.99,,,-99.99,,2013-04-14 06:42:00,
2013-04-13 23:52:00,40.0,38.0,-100.00,South,180,1.0,4.0,93,-99.99,,,-99.99,,2013-04-14 06:52:00,